sensor_id;sensor_type;location;lat;lon;timestamp;P1;durP1;ratioP1;P2;durP2;ratioP2
31210;SDS011;17836;50.948;3.946;2022-07-21T00:00:24;4.80;;;3.00;;
31210;SDS011;17836;50.948;3.946;2022-07-21T00:02:50;3.05;;;2.70;;
31210;SDS011;17836;50.948;3.946;2022-07-21T00:05:15;3.83;;;2.97;;
31210;SDS011;17836;50.948;3.946;2022-07-21T00:07:40;4.53;;;3.92;;
31210;SDS011;17836;50.948;3.946;2022-07-21T00:10:06;6.17;;;3.60;;
31210;SDS011;17836;50.948;3.946;2022-07-21T00:12:32;5.30;;;3.47;;
31210;SDS011;17836;50.948;3.946;2022-07-21T00:14:57;4.07;;;3.17;;
31210;SDS011;17836;50.948;3.946;2022-07-21T00:17:22;3.63;;;3.33;;
31210;SDS011;17836;50.948;3.946;2022-07-21T00:19:48;3.78;;;3.47;;
31210;SDS011;17836;50.948;3.946;2022-07-21T00:22:13;3.67;;;3.03;;
31210;SDS011;17836;50.948;3.946;2022-07-21T00:24:38;5.67;;;3.40;;
31210;SDS011;17836;50.948;3.946;2022-07-21T00:27:03;5.30;;;3.33;;
31210;SDS011;17836;50.948;3.946;2022-07-21T00:29:29;3.25;;;2.95;;
31210;SDS011;17836;50.948;3.946;2022-07-21T00:31:54;4.43;;;3.17;;
31210;SDS011;17836;50.948;3.946;2022-07-21T00:34:20;3.87;;;3.47;;
31210;SDS011;17836;50.948;3.946;2022-07-21T00:36:45;4.00;;;3.47;;
31210;SDS011;17836;50.948;3.946;2022-07-21T00:39:11;3.50;;;3.20;;
31210;SDS011;17836;50.948;3.946;2022-07-21T00:41:37;3.95;;;2.90;;
31210;SDS011;17836;50.948;3.946;2022-07-21T00:44:02;4.07;;;3.10;;
31210;SDS011;17836;50.948;3.946;2022-07-21T00:46:28;4.97;;;3.17;;
31210;SDS011;17836;50.948;3.946;2022-07-21T00:48:53;2.95;;;2.72;;
31210;SDS011;17836;50.948;3.946;2022-07-21T00:51:18;3.77;;;3.00;;
31210;SDS011;17836;50.948;3.946;2022-07-21T00:53:44;3.03;;;2.72;;
31210;SDS011;17836;50.948;3.946;2022-07-21T00:56:10;3.05;;;2.83;;
31210;SDS011;17836;50.948;3.946;2022-07-21T00:58:35;4.82;;;3.13;;
31210;SDS011;17836;50.948;3.946;2022-07-21T01:01:00;3.03;;;2.60;;
31210;SDS011;17836;50.948;3.946;2022-07-21T01:03:26;3.20;;;2.90;;
31210;SDS011;17836;50.948;3.946;2022-07-21T01:05:51;5.65;;;2.95;;
31210;SDS011;17836;50.948;3.946;2022-07-21T01:08:18;3.55;;;2.40;;
31210;SDS011;17836;50.948;3.946;2022-07-21T01:10:44;3.30;;;2.17;;
31210;SDS011;17836;50.948;3.946;2022-07-21T01:13:09;4.13;;;2.42;;
31210;SDS011;17836;50.948;3.946;2022-07-21T01:15:34;3.50;;;3.20;;
31210;SDS011;17836;50.948;3.946;2022-07-21T01:18:00;2.37;;;2.17;;
31210;SDS011;17836;50.948;3.946;2022-07-21T01:20:26;3.90;;;3.33;;
31210;SDS011;17836;50.948;3.946;2022-07-21T01:22:53;4.18;;;3.00;;
31210;SDS011;17836;50.948;3.946;2022-07-21T01:25:18;3.03;;;2.38;;
31210;SDS011;17836;50.948;3.946;2022-07-21T01:27:44;4.32;;;2.97;;
31210;SDS011;17836;50.948;3.946;2022-07-21T01:30:10;5.03;;;3.00;;
31210;SDS011;17836;50.948;3.946;2022-07-21T01:32:36;4.07;;;3.10;;
31210;SDS011;17836;50.948;3.946;2022-07-21T01:35:03;3.35;;;2.78;;
31210;SDS011;17836;50.948;3.946;2022-07-21T01:37:28;6.03;;;2.58;;
31210;SDS011;17836;50.948;3.946;2022-07-21T01:39:54;3.63;;;2.90;;
31210;SDS011;17836;50.948;3.946;2022-07-21T01:42:38;3.08;;;2.78;;
31210;SDS011;17836;50.948;3.946;2022-07-21T01:45:03;3.57;;;2.93;;
31210;SDS011;17836;50.948;3.946;2022-07-21T01:47:29;4.30;;;3.15;;
31210;SDS011;17836;50.948;3.946;2022-07-21T01:49:54;5.27;;;3.03;;
31210;SDS011;17836;50.948;3.946;2022-07-21T01:52:19;8.23;;;4.53;;
31210;SDS011;17836;50.948;3.946;2022-07-21T01:54:45;6.33;;;3.37;;
31210;SDS011;17836;50.948;3.946;2022-07-21T01:57:10;5.00;;;3.20;;
31210;SDS011;17836;50.948;3.946;2022-07-21T01:59:36;8.45;;;3.47;;
31210;SDS011;17836;50.948;3.946;2022-07-21T02:02:01;3.10;;;2.80;;
31210;SDS011;17836;50.948;3.946;2022-07-21T02:04:26;4.53;;;3.53;;
31210;SDS011;17836;50.948;3.946;2022-07-21T02:06:52;4.65;;;2.90;;
31210;SDS011;17836;50.948;3.946;2022-07-21T02:09:18;6.40;;;3.77;;
31210;SDS011;17836;50.948;3.946;2022-07-21T02:11:43;4.00;;;3.50;;
31210;SDS011;17836;50.948;3.946;2022-07-21T02:14:08;4.20;;;3.53;;
31210;SDS011;17836;50.948;3.946;2022-07-21T02:16:33;3.77;;;2.97;;
31210;SDS011;17836;50.948;3.946;2022-07-21T02:18:59;4.33;;;3.57;;
31210;SDS011;17836;50.948;3.946;2022-07-21T02:21:24;4.15;;;2.92;;
31210;SDS011;17836;50.948;3.946;2022-07-21T02:23:49;3.22;;;2.92;;
31210;SDS011;17836;50.948;3.946;2022-07-21T02:26:15;3.83;;;3.10;;
31210;SDS011;17836;50.948;3.946;2022-07-21T02:28:41;5.68;;;3.50;;
31210;SDS011;17836;50.948;3.946;2022-07-21T02:31:07;5.07;;;3.13;;
31210;SDS011;17836;50.948;3.946;2022-07-21T02:33:32;3.30;;;3.00;;
31210;SDS011;17836;50.948;3.946;2022-07-21T02:35:58;5.32;;;3.60;;
31210;SDS011;17836;50.948;3.946;2022-07-21T02:38:23;8.15;;;3.50;;
31210;SDS011;17836;50.948;3.946;2022-07-21T02:40:48;3.63;;;3.17;;
31210;SDS011;17836;50.948;3.946;2022-07-21T02:43:14;3.95;;;3.15;;
31210;SDS011;17836;50.948;3.946;2022-07-21T02:45:39;5.47;;;3.60;;
31210;SDS011;17836;50.948;3.946;2022-07-21T02:48:07;5.28;;;3.60;;
31210;SDS011;17836;50.948;3.946;2022-07-21T02:50:37;7.00;;;3.45;;
31210;SDS011;17836;50.948;3.946;2022-07-21T02:53:05;7.32;;;4.20;;
31210;SDS011;17836;50.948;3.946;2022-07-21T02:55:30;6.75;;;3.78;;
31210;SDS011;17836;50.948;3.946;2022-07-21T03:00:37;5.45;;;4.40;;
31210;SDS011;17836;50.948;3.946;2022-07-21T03:03:02;8.73;;;4.20;;
31210;SDS011;17836;50.948;3.946;2022-07-21T03:05:28;4.40;;;3.70;;
31210;SDS011;17836;50.948;3.946;2022-07-21T03:07:54;6.32;;;4.93;;
31210;SDS011;17836;50.948;3.946;2022-07-21T03:10:19;5.00;;;4.50;;
31210;SDS011;17836;50.948;3.946;2022-07-21T03:12:44;5.03;;;4.53;;
31210;SDS011;17836;50.948;3.946;2022-07-21T03:15:10;8.07;;;4.77;;
31210;SDS011;17836;50.948;3.946;2022-07-21T03:17:35;6.37;;;5.33;;
31210;SDS011;17836;50.948;3.946;2022-07-21T03:20:01;7.68;;;5.55;;
31210;SDS011;17836;50.948;3.946;2022-07-21T03:22:26;10.47;;;5.40;;
31210;SDS011;17836;50.948;3.946;2022-07-21T03:24:51;6.03;;;5.30;;
31210;SDS011;17836;50.948;3.946;2022-07-21T03:27:17;7.00;;;6.38;;
31210;SDS011;17836;50.948;3.946;2022-07-21T03:29:42;5.78;;;5.28;;
31210;SDS011;17836;50.948;3.946;2022-07-21T03:32:08;6.70;;;5.47;;
31210;SDS011;17836;50.948;3.946;2022-07-21T03:34:33;6.93;;;5.33;;
31210;SDS011;17836;50.948;3.946;2022-07-21T03:36:58;6.43;;;5.68;;
31210;SDS011;17836;50.948;3.946;2022-07-21T03:39:24;8.73;;;5.67;;
31210;SDS011;17836;50.948;3.946;2022-07-21T03:41:49;9.67;;;5.83;;
31210;SDS011;17836;50.948;3.946;2022-07-21T03:44:14;7.38;;;6.28;;
31210;SDS011;17836;50.948;3.946;2022-07-21T03:46:39;9.00;;;6.00;;
31210;SDS011;17836;50.948;3.946;2022-07-21T03:49:05;7.03;;;6.40;;
31210;SDS011;17836;50.948;3.946;2022-07-21T03:51:30;7.97;;;7.10;;
31210;SDS011;17836;50.948;3.946;2022-07-21T03:53:55;11.90;;;7.10;;
31210;SDS011;17836;50.948;3.946;2022-07-21T03:56:20;9.10;;;7.03;;
31210;SDS011;17836;50.948;3.946;2022-07-21T03:58:46;9.57;;;7.32;;
31210;SDS011;17836;50.948;3.946;2022-07-21T04:01:11;10.23;;;7.67;;
31210;SDS011;17836;50.948;3.946;2022-07-21T04:03:36;11.47;;;8.10;;
31210;SDS011;17836;50.948;3.946;2022-07-21T04:06:02;8.88;;;7.88;;
31210;SDS011;17836;50.948;3.946;2022-07-21T04:08:27;9.87;;;7.87;;
31210;SDS011;17836;50.948;3.946;2022-07-21T04:10:53;8.55;;;7.72;;
31210;SDS011;17836;50.948;3.946;2022-07-21T04:13:18;8.73;;;7.82;;
31210;SDS011;17836;50.948;3.946;2022-07-21T04:15:43;12.13;;;8.23;;
31210;SDS011;17836;50.948;3.946;2022-07-21T04:18:09;9.50;;;8.37;;
31210;SDS011;17836;50.948;3.946;2022-07-21T04:20:34;11.05;;;9.20;;
31210;SDS011;17836;50.948;3.946;2022-07-21T04:22:59;10.85;;;9.30;;
31210;SDS011;17836;50.948;3.946;2022-07-21T04:25:25;10.82;;;8.20;;
31210;SDS011;17836;50.948;3.946;2022-07-21T04:27:51;11.30;;;9.57;;
31210;SDS011;17836;50.948;3.946;2022-07-21T04:30:17;16.80;;;10.70;;
31210;SDS011;17836;50.948;3.946;2022-07-21T04:32:43;11.90;;;9.57;;
31210;SDS011;17836;50.948;3.946;2022-07-21T04:35:09;12.07;;;9.82;;
31210;SDS011;17836;50.948;3.946;2022-07-21T04:37:35;11.57;;;9.88;;
31210;SDS011;17836;50.948;3.946;2022-07-21T04:40:00;15.43;;;10.63;;
31210;SDS011;17836;50.948;3.946;2022-07-21T04:42:26;16.05;;;10.15;;
31210;SDS011;17836;50.948;3.946;2022-07-21T04:44:51;17.02;;;10.35;;
31210;SDS011;17836;50.948;3.946;2022-07-21T04:47:17;11.43;;;10.20;;
31210;SDS011;17836;50.948;3.946;2022-07-21T04:49:42;11.60;;;10.43;;
31210;SDS011;17836;50.948;3.946;2022-07-21T04:52:08;12.15;;;10.00;;
31210;SDS011;17836;50.948;3.946;2022-07-21T04:54:33;14.53;;;10.43;;
31210;SDS011;17836;50.948;3.946;2022-07-21T04:56:59;15.40;;;10.15;;
31210;SDS011;17836;50.948;3.946;2022-07-21T04:59:27;14.70;;;11.13;;
31210;SDS011;17836;50.948;3.946;2022-07-21T05:01:53;13.18;;;10.18;;
31210;SDS011;17836;50.948;3.946;2022-07-21T05:04:18;13.63;;;10.02;;
31210;SDS011;17836;50.948;3.946;2022-07-21T05:06:44;16.10;;;11.10;;
31210;SDS011;17836;50.948;3.946;2022-07-21T05:09:09;12.33;;;10.50;;
31210;SDS011;17836;50.948;3.946;2022-07-21T05:11:34;14.90;;;10.23;;
31210;SDS011;17836;50.948;3.946;2022-07-21T05:14:00;12.95;;;10.05;;
31210;SDS011;17836;50.948;3.946;2022-07-21T05:16:25;16.23;;;11.20;;
31210;SDS011;17836;50.948;3.946;2022-07-21T05:18:51;14.25;;;11.65;;
31210;SDS011;17836;50.948;3.946;2022-07-21T05:21:16;14.50;;;11.70;;
31210;SDS011;17836;50.948;3.946;2022-07-21T05:23:41;16.20;;;11.33;;
31210;SDS011;17836;50.948;3.946;2022-07-21T05:26:07;13.48;;;11.02;;
31210;SDS011;17836;50.948;3.946;2022-07-21T05:28:32;16.27;;;11.40;;
31210;SDS011;17836;50.948;3.946;2022-07-21T05:30:57;16.60;;;12.90;;
31210;SDS011;17836;50.948;3.946;2022-07-21T05:33:23;14.23;;;12.50;;
31210;SDS011;17836;50.948;3.946;2022-07-21T05:35:48;16.63;;;11.80;;
31210;SDS011;17836;50.948;3.946;2022-07-21T05:38:13;17.57;;;12.83;;
31210;SDS011;17836;50.948;3.946;2022-07-21T05:40:39;22.08;;;14.52;;
31210;SDS011;17836;50.948;3.946;2022-07-21T05:43:04;19.05;;;14.15;;
31210;SDS011;17836;50.948;3.946;2022-07-21T05:45:29;22.40;;;15.10;;
31210;SDS011;17836;50.948;3.946;2022-07-21T05:47:55;22.65;;;14.93;;
31210;SDS011;17836;50.948;3.946;2022-07-21T05:50:20;24.67;;;15.43;;
31210;SDS011;17836;50.948;3.946;2022-07-21T05:52:45;27.63;;;15.93;;
31210;SDS011;17836;50.948;3.946;2022-07-21T05:55:11;25.73;;;15.10;;
31210;SDS011;17836;50.948;3.946;2022-07-21T05:57:37;25.07;;;15.90;;
31210;SDS011;17836;50.948;3.946;2022-07-21T06:00:03;23.90;;;16.00;;
31210;SDS011;17836;50.948;3.946;2022-07-21T06:02:28;32.45;;;17.15;;
31210;SDS011;17836;50.948;3.946;2022-07-21T06:04:55;31.45;;;17.85;;
31210;SDS011;17836;50.948;3.946;2022-07-21T06:07:21;29.27;;;18.48;;
31210;SDS011;17836;50.948;3.946;2022-07-21T06:09:46;28.35;;;17.08;;
31210;SDS011;17836;50.948;3.946;2022-07-21T06:12:11;29.17;;;18.15;;
31210;SDS011;17836;50.948;3.946;2022-07-21T06:14:37;28.75;;;17.88;;
31210;SDS011;17836;50.948;3.946;2022-07-21T06:17:02;26.27;;;17.85;;
31210;SDS011;17836;50.948;3.946;2022-07-21T06:19:28;25.57;;;17.03;;
31210;SDS011;17836;50.948;3.946;2022-07-21T06:21:53;36.43;;;17.87;;
31210;SDS011;17836;50.948;3.946;2022-07-21T06:24:18;28.27;;;18.52;;
31210;SDS011;17836;50.948;3.946;2022-07-21T06:26:47;37.42;;;19.63;;
31210;SDS011;17836;50.948;3.946;2022-07-21T06:29:12;30.70;;;20.60;;
31210;SDS011;17836;50.948;3.946;2022-07-21T06:31:37;29.80;;;18.17;;
31210;SDS011;17836;50.948;3.946;2022-07-21T06:34:02;36.73;;;20.33;;
31210;SDS011;17836;50.948;3.946;2022-07-21T06:36:28;40.08;;;20.80;;
31210;SDS011;17836;50.948;3.946;2022-07-21T06:38:53;34.92;;;19.70;;
31210;SDS011;17836;50.948;3.946;2022-07-21T06:41:18;35.40;;;20.97;;
31210;SDS011;17836;50.948;3.946;2022-07-21T06:43:44;34.53;;;21.17;;
31210;SDS011;17836;50.948;3.946;2022-07-21T06:46:09;37.00;;;19.75;;
31210;SDS011;17836;50.948;3.946;2022-07-21T06:48:35;36.13;;;21.07;;
31210;SDS011;17836;50.948;3.946;2022-07-21T06:51:00;35.13;;;19.27;;
31210;SDS011;17836;50.948;3.946;2022-07-21T06:53:25;38.90;;;20.57;;
31210;SDS011;17836;50.948;3.946;2022-07-21T06:55:51;38.05;;;21.50;;
31210;SDS011;17836;50.948;3.946;2022-07-21T06:58:18;33.90;;;19.55;;
31210;SDS011;17836;50.948;3.946;2022-07-21T07:00:44;35.35;;;20.95;;
31210;SDS011;17836;50.948;3.946;2022-07-21T07:03:10;36.85;;;20.90;;
31210;SDS011;17836;50.948;3.946;2022-07-21T07:05:35;36.53;;;20.38;;
31210;SDS011;17836;50.948;3.946;2022-07-21T07:08:01;41.00;;;21.75;;
31210;SDS011;17836;50.948;3.946;2022-07-21T07:10:27;31.98;;;20.55;;
31210;SDS011;17836;50.948;3.946;2022-07-21T07:12:52;34.38;;;19.98;;
31210;SDS011;17836;50.948;3.946;2022-07-21T07:15:18;34.78;;;17.98;;
31210;SDS011;17836;50.948;3.946;2022-07-21T07:17:43;27.02;;;17.17;;
31210;SDS011;17836;50.948;3.946;2022-07-21T07:20:08;27.10;;;18.33;;
31210;SDS011;17836;50.948;3.946;2022-07-21T07:22:35;32.38;;;17.65;;
31210;SDS011;17836;50.948;3.946;2022-07-21T07:25:00;29.13;;;17.42;;
31210;SDS011;17836;50.948;3.946;2022-07-21T07:27:26;36.03;;;19.10;;
31210;SDS011;17836;50.948;3.946;2022-07-21T07:29:51;26.23;;;16.35;;
31210;SDS011;17836;50.948;3.946;2022-07-21T07:32:17;23.85;;;16.92;;
31210;SDS011;17836;50.948;3.946;2022-07-21T07:34:43;24.63;;;16.35;;
31210;SDS011;17836;50.948;3.946;2022-07-21T07:37:08;21.00;;;12.83;;
31210;SDS011;17836;50.948;3.946;2022-07-21T07:39:33;20.90;;;13.53;;
31210;SDS011;17836;50.948;3.946;2022-07-21T07:41:59;21.63;;;13.88;;
31210;SDS011;17836;50.948;3.946;2022-07-21T07:44:25;21.38;;;13.20;;
31210;SDS011;17836;50.948;3.946;2022-07-21T07:46:50;28.42;;;14.15;;
31210;SDS011;17836;50.948;3.946;2022-07-21T07:49:17;21.02;;;12.82;;
31210;SDS011;17836;50.948;3.946;2022-07-21T07:51:42;19.10;;;13.30;;
31210;SDS011;17836;50.948;3.946;2022-07-21T07:54:08;16.77;;;11.93;;
31210;SDS011;17836;50.948;3.946;2022-07-21T07:56:33;16.42;;;11.05;;
31210;SDS011;17836;50.948;3.946;2022-07-21T07:58:59;13.23;;;9.43;;
31210;SDS011;17836;50.948;3.946;2022-07-21T08:01:24;12.93;;;9.43;;
31210;SDS011;17836;50.948;3.946;2022-07-21T08:03:50;16.73;;;9.63;;
31210;SDS011;17836;50.948;3.946;2022-07-21T08:06:15;14.05;;;10.50;;
31210;SDS011;17836;50.948;3.946;2022-07-21T08:08:40;9.43;;;8.40;;
31210;SDS011;17836;50.948;3.946;2022-07-21T08:11:06;11.07;;;7.75;;
31210;SDS011;17836;50.948;3.946;2022-07-21T08:13:32;12.63;;;7.70;;
31210;SDS011;17836;50.948;3.946;2022-07-21T08:15:57;8.07;;;7.28;;
31210;SDS011;17836;50.948;3.946;2022-07-21T08:18:22;8.53;;;7.67;;
31210;SDS011;17836;50.948;3.946;2022-07-21T08:20:48;9.68;;;6.88;;
31210;SDS011;17836;50.948;3.946;2022-07-21T08:23:13;7.75;;;6.93;;
31210;SDS011;17836;50.948;3.946;2022-07-21T08:25:39;7.93;;;6.85;;
31210;SDS011;17836;50.948;3.946;2022-07-21T08:28:04;8.10;;;7.30;;
31210;SDS011;17836;50.948;3.946;2022-07-21T08:30:30;6.93;;;6.23;;
31210;SDS011;17836;50.948;3.946;2022-07-21T08:32:56;9.25;;;6.20;;
31210;SDS011;17836;50.948;3.946;2022-07-21T08:35:21;6.68;;;6.07;;
31210;SDS011;17836;50.948;3.946;2022-07-21T08:37:57;8.07;;;6.93;;
31210;SDS011;17836;50.948;3.946;2022-07-21T08:40:24;7.05;;;6.30;;
31210;SDS011;17836;50.948;3.946;2022-07-21T08:42:51;8.95;;;6.88;;
31210;SDS011;17836;50.948;3.946;2022-07-21T08:45:16;7.32;;;6.63;;
31210;SDS011;17836;50.948;3.946;2022-07-21T08:47:42;7.40;;;6.63;;
31210;SDS011;17836;50.948;3.946;2022-07-21T08:50:07;8.40;;;5.90;;
31210;SDS011;17836;50.948;3.946;2022-07-21T08:52:33;10.18;;;6.78;;
31210;SDS011;17836;50.948;3.946;2022-07-21T08:54:59;10.45;;;7.20;;
31210;SDS011;17836;50.948;3.946;2022-07-21T08:57:25;13.07;;;6.97;;
31210;SDS011;17836;50.948;3.946;2022-07-21T08:59:50;7.30;;;6.13;;
31210;SDS011;17836;50.948;3.946;2022-07-21T09:02:28;7.87;;;6.27;;
31210;SDS011;17836;50.948;3.946;2022-07-21T09:04:54;6.97;;;5.78;;
31210;SDS011;17836;50.948;3.946;2022-07-21T09:07:19;8.20;;;5.70;;
31210;SDS011;17836;50.948;3.946;2022-07-21T09:09:53;6.20;;;5.13;;
31210;SDS011;17836;50.948;3.946;2022-07-21T09:12:18;7.55;;;5.57;;
31210;SDS011;17836;50.948;3.946;2022-07-21T09:14:44;5.27;;;4.77;;
31210;SDS011;17836;50.948;3.946;2022-07-21T09:17:09;9.00;;;5.20;;
31210;SDS011;17836;50.948;3.946;2022-07-21T09:19:36;6.03;;;5.30;;
31210;SDS011;17836;50.948;3.946;2022-07-21T09:22:04;8.10;;;4.85;;
31210;SDS011;17836;50.948;3.946;2022-07-21T09:24:31;7.95;;;4.88;;
31210;SDS011;17836;50.948;3.946;2022-07-21T09:34:39;6.93;;;5.18;;
31210;SDS011;17836;50.948;3.946;2022-07-21T09:37:06;7.53;;;5.10;;
31210;SDS011;17836;50.948;3.946;2022-07-21T09:42:40;8.32;;;5.53;;
31210;SDS011;17836;50.948;3.946;2022-07-21T09:44:58;5.45;;;4.75;;
31210;SDS011;17836;50.948;3.946;2022-07-21T09:47:25;9.00;;;6.22;;
31210;SDS011;17836;50.948;3.946;2022-07-21T09:49:52;8.88;;;6.40;;
31210;SDS011;17836;50.948;3.946;2022-07-21T09:52:22;8.70;;;5.70;;
31210;SDS011;17836;50.948;3.946;2022-07-21T09:54:47;7.80;;;5.90;;
31210;SDS011;17836;50.948;3.946;2022-07-21T09:57:14;12.60;;;5.93;;
31210;SDS011;17836;50.948;3.946;2022-07-21T09:59:39;9.38;;;5.97;;
31210;SDS011;17836;50.948;3.946;2022-07-21T10:02:05;10.40;;;5.97;;
31210;SDS011;17836;50.948;3.946;2022-07-21T10:04:30;10.60;;;5.78;;
31210;SDS011;17836;50.948;3.946;2022-07-21T10:06:56;10.68;;;4.70;;
31210;SDS011;17836;50.948;3.946;2022-07-21T10:09:22;6.32;;;4.75;;
31210;SDS011;17836;50.948;3.946;2022-07-21T10:11:47;8.80;;;4.93;;
31210;SDS011;17836;50.948;3.946;2022-07-21T10:14:13;7.15;;;4.25;;
31210;SDS011;17836;50.948;3.946;2022-07-21T10:16:38;9.67;;;4.10;;
31210;SDS011;17836;50.948;3.946;2022-07-21T10:19:10;9.73;;;4.35;;
31210;SDS011;17836;50.948;3.946;2022-07-21T10:24:22;7.65;;;3.90;;
31210;SDS011;17836;50.948;3.946;2022-07-21T10:27:00;9.65;;;4.35;;
31210;SDS011;17836;50.948;3.946;2022-07-21T10:32:10;19.75;;;5.75;;
31210;SDS011;17836;50.948;3.946;2022-07-21T10:34:36;4.75;;;3.83;;
31210;SDS011;17836;50.948;3.946;2022-07-21T10:37:01;6.97;;;3.78;;
31210;SDS011;17836;50.948;3.946;2022-07-21T10:39:26;3.87;;;2.90;;
31210;SDS011;17836;50.948;3.946;2022-07-21T10:41:53;4.00;;;3.35;;
31210;SDS011;17836;50.948;3.946;2022-07-21T10:47:10;5.07;;;3.28;;
31210;SDS011;17836;50.948;3.946;2022-07-21T10:57:40;7.07;;;2.63;;
31210;SDS011;17836;50.948;3.946;2022-07-21T11:02:57;3.78;;;2.88;;
31210;SDS011;17836;50.948;3.946;2022-07-21T11:05:23;6.10;;;2.50;;
31210;SDS011;17836;50.948;3.946;2022-07-21T11:10:32;5.00;;;2.60;;
31210;SDS011;17836;50.948;3.946;2022-07-21T11:12:58;5.72;;;2.80;;
31210;SDS011;17836;50.948;3.946;2022-07-21T11:15:43;7.82;;;2.80;;
31210;SDS011;17836;50.948;3.946;2022-07-21T11:18:08;5.68;;;2.40;;
31210;SDS011;17836;50.948;3.946;2022-07-21T11:20:33;6.10;;;2.15;;
31210;SDS011;17836;50.948;3.946;2022-07-21T11:22:59;4.75;;;2.50;;
31210;SDS011;17836;50.948;3.946;2022-07-21T11:25:28;3.85;;;1.88;;
31210;SDS011;17836;50.948;3.946;2022-07-21T11:27:54;2.92;;;1.67;;
31210;SDS011;17836;50.948;3.946;2022-07-21T11:30:19;3.53;;;1.90;;
31210;SDS011;17836;50.948;3.946;2022-07-21T11:32:47;3.40;;;1.40;;
31210;SDS011;17836;50.948;3.946;2022-07-21T11:35:13;4.05;;;2.25;;
31210;SDS011;17836;50.948;3.946;2022-07-21T11:37:42;2.53;;;1.80;;
31210;SDS011;17836;50.948;3.946;2022-07-21T11:40:12;3.85;;;2.30;;
31210;SDS011;17836;50.948;3.946;2022-07-21T11:42:38;3.05;;;1.70;;
31210;SDS011;17836;50.948;3.946;2022-07-21T11:45:04;3.88;;;1.88;;
31210;SDS011;17836;50.948;3.946;2022-07-21T11:47:32;5.07;;;2.38;;
31210;SDS011;17836;50.948;3.946;2022-07-21T11:50:00;4.53;;;1.88;;
31210;SDS011;17836;50.948;3.946;2022-07-21T11:52:27;4.47;;;2.05;;
31210;SDS011;17836;50.948;3.946;2022-07-21T11:54:53;7.45;;;2.65;;
31210;SDS011;17836;50.948;3.946;2022-07-21T11:57:19;4.80;;;2.67;;
31210;SDS011;17836;50.948;3.946;2022-07-21T11:59:45;2.30;;;1.83;;
31210;SDS011;17836;50.948;3.946;2022-07-21T12:02:15;3.97;;;1.90;;
31210;SDS011;17836;50.948;3.946;2022-07-21T12:04:51;6.33;;;2.57;;
31210;SDS011;17836;50.948;3.946;2022-07-21T12:07:24;3.17;;;2.25;;
31210;SDS011;17836;50.948;3.946;2022-07-21T12:09:51;7.47;;;2.47;;
31210;SDS011;17836;50.948;3.946;2022-07-21T12:12:26;9.82;;;2.60;;
31210;SDS011;17836;50.948;3.946;2022-07-21T12:14:52;6.93;;;2.65;;
31210;SDS011;17836;50.948;3.946;2022-07-21T12:17:32;7.25;;;2.35;;
31210;SDS011;17836;50.948;3.946;2022-07-21T12:19:58;8.95;;;3.28;;
31210;SDS011;17836;50.948;3.946;2022-07-21T12:22:36;4.78;;;2.75;;
31210;SDS011;17836;50.948;3.946;2022-07-21T12:25:02;6.47;;;2.80;;
31210;SDS011;17836;50.948;3.946;2022-07-21T12:27:28;5.45;;;2.75;;
31210;SDS011;17836;50.948;3.946;2022-07-21T12:29:53;3.03;;;2.42;;
31210;SDS011;17836;50.948;3.946;2022-07-21T12:32:38;3.63;;;2.40;;
31210;SDS011;17836;50.948;3.946;2022-07-21T12:35:03;5.93;;;2.40;;
31210;SDS011;17836;50.948;3.946;2022-07-21T12:40:13;7.35;;;2.50;;
31210;SDS011;17836;50.948;3.946;2022-07-21T12:42:39;3.45;;;2.10;;
31210;SDS011;17836;50.948;3.946;2022-07-21T12:45:14;5.97;;;2.60;;
31210;SDS011;17836;50.948;3.946;2022-07-21T12:47:40;6.47;;;2.20;;
31210;SDS011;17836;50.948;3.946;2022-07-21T12:50:06;6.37;;;2.50;;
31210;SDS011;17836;50.948;3.946;2022-07-21T12:52:31;7.32;;;2.65;;
31210;SDS011;17836;50.948;3.946;2022-07-21T12:54:58;5.18;;;2.50;;
31210;SDS011;17836;50.948;3.946;2022-07-21T12:57:30;4.65;;;2.63;;
31210;SDS011;17836;50.948;3.946;2022-07-21T12:59:56;7.13;;;2.92;;
31210;SDS011;17836;50.948;3.946;2022-07-21T13:02:21;8.13;;;3.25;;
31210;SDS011;17836;50.948;3.946;2022-07-21T13:04:46;5.35;;;2.38;;
31210;SDS011;17836;50.948;3.946;2022-07-21T13:07:12;4.07;;;2.30;;
31210;SDS011;17836;50.948;3.946;2022-07-21T13:09:37;5.63;;;3.53;;
31210;SDS011;17836;50.948;3.946;2022-07-21T13:12:03;4.00;;;2.40;;
31210;SDS011;17836;50.948;3.946;2022-07-21T13:14:30;8.65;;;2.63;;
31210;SDS011;17836;50.948;3.946;2022-07-21T13:16:55;4.80;;;2.40;;
31210;SDS011;17836;50.948;3.946;2022-07-21T13:19:22;10.35;;;2.92;;
31210;SDS011;17836;50.948;3.946;2022-07-21T13:21:47;2.42;;;2.17;;
31210;SDS011;17836;50.948;3.946;2022-07-21T13:24:13;4.20;;;2.45;;
31210;SDS011;17836;50.948;3.946;2022-07-21T13:26:38;5.53;;;2.83;;
31210;SDS011;17836;50.948;3.946;2022-07-21T13:29:03;3.73;;;2.23;;
31210;SDS011;17836;50.948;3.946;2022-07-21T13:31:30;3.90;;;2.55;;
31210;SDS011;17836;50.948;3.946;2022-07-21T13:33:55;7.13;;;2.28;;
31210;SDS011;17836;50.948;3.946;2022-07-21T13:36:21;5.72;;;2.30;;
31210;SDS011;17836;50.948;3.946;2022-07-21T13:38:47;4.55;;;2.38;;
31210;SDS011;17836;50.948;3.946;2022-07-21T13:41:12;6.60;;;2.23;;
31210;SDS011;17836;50.948;3.946;2022-07-21T13:43:39;4.88;;;2.22;;
31210;SDS011;17836;50.948;3.946;2022-07-21T13:46:04;4.53;;;1.98;;
31210;SDS011;17836;50.948;3.946;2022-07-21T13:48:30;5.72;;;2.42;;
31210;SDS011;17836;50.948;3.946;2022-07-21T13:50:55;5.60;;;1.97;;
31210;SDS011;17836;50.948;3.946;2022-07-21T13:53:21;7.82;;;2.50;;
31210;SDS011;17836;50.948;3.946;2022-07-21T13:55:46;5.37;;;1.90;;
31210;SDS011;17836;50.948;3.946;2022-07-21T13:58:11;8.63;;;2.30;;
31210;SDS011;17836;50.948;3.946;2022-07-21T14:00:36;5.93;;;2.37;;
31210;SDS011;17836;50.948;3.946;2022-07-21T14:03:02;5.45;;;2.50;;
31210;SDS011;17836;50.948;3.946;2022-07-21T14:05:27;4.43;;;1.77;;
31210;SDS011;17836;50.948;3.946;2022-07-21T14:07:53;3.28;;;1.35;;
31210;SDS011;17836;50.948;3.946;2022-07-21T14:10:18;3.00;;;1.50;;
31210;SDS011;17836;50.948;3.946;2022-07-21T14:12:43;2.93;;;1.80;;
31210;SDS011;17836;50.948;3.946;2022-07-21T14:15:09;3.00;;;1.83;;
31210;SDS011;17836;50.948;3.946;2022-07-21T14:17:35;5.20;;;2.30;;
31210;SDS011;17836;50.948;3.946;2022-07-21T14:20:00;6.93;;;2.30;;
31210;SDS011;17836;50.948;3.946;2022-07-21T14:22:25;5.63;;;2.10;;
31210;SDS011;17836;50.948;3.946;2022-07-21T14:24:50;8.03;;;2.33;;
31210;SDS011;17836;50.948;3.946;2022-07-21T14:27:34;5.95;;;1.75;;
31210;SDS011;17836;50.948;3.946;2022-07-21T14:30:00;5.93;;;1.75;;
31210;SDS011;17836;50.948;3.946;2022-07-21T14:32:26;3.45;;;1.65;;
31210;SDS011;17836;50.948;3.946;2022-07-21T14:34:51;2.87;;;1.57;;
31210;SDS011;17836;50.948;3.946;2022-07-21T14:37:20;3.00;;;1.63;;
31210;SDS011;17836;50.948;3.946;2022-07-21T14:39:46;5.65;;;1.95;;
31210;SDS011;17836;50.948;3.946;2022-07-21T14:42:11;4.00;;;1.95;;
31210;SDS011;17836;50.948;3.946;2022-07-21T14:44:37;6.03;;;1.90;;
31210;SDS011;17836;50.948;3.946;2022-07-21T14:47:02;13.82;;;2.38;;
31210;SDS011;17836;50.948;3.946;2022-07-21T14:49:27;4.47;;;2.17;;
31210;SDS011;17836;50.948;3.946;2022-07-21T14:51:53;4.60;;;2.43;;
31210;SDS011;17836;50.948;3.946;2022-07-21T14:54:18;3.90;;;2.00;;
31210;SDS011;17836;50.948;3.946;2022-07-21T14:56:43;3.90;;;2.10;;
31210;SDS011;17836;50.948;3.946;2022-07-21T14:59:10;5.65;;;2.00;;
31210;SDS011;17836;50.948;3.946;2022-07-21T15:01:36;5.03;;;1.48;;
31210;SDS011;17836;50.948;3.946;2022-07-21T15:04:01;4.27;;;1.77;;
31210;SDS011;17836;50.948;3.946;2022-07-21T15:06:26;2.97;;;1.10;;
31210;SDS011;17836;50.948;3.946;2022-07-21T15:08:51;6.38;;;1.63;;
31210;SDS011;17836;50.948;3.946;2022-07-21T15:11:17;4.23;;;1.63;;